sensor_id;sensor_type;location;lat;lon;timestamp;P1;durP1;ratioP1;P2;durP2;ratioP2
63312;SDS011;49442;45.640;13.812;2024-03-23T00:52:09;3.17;;;2.38;;
63312;SDS011;49442;45.640;13.812;2024-03-23T00:54:35;5.00;;;2.85;;
63312;SDS011;49442;45.640;13.812;2024-03-23T00:57:01;4.28;;;2.65;;
63312;SDS011;49442;45.640;13.812;2024-03-23T00:59:27;4.90;;;2.35;;
63312;SDS011;49442;45.640;13.812;2024-03-23T01:01:53;3.22;;;2.47;;
63312;SDS011;49442;45.640;13.812;2024-03-23T01:04:19;4.68;;;2.05;;
63312;SDS011;49442;45.640;13.812;2024-03-23T01:06:45;5.30;;;2.67;;
63312;SDS011;49442;45.640;13.812;2024-03-23T01:09:12;4.53;;;2.30;;
63312;SDS011;49442;45.640;13.812;2024-03-23T01:11:38;4.35;;;2.60;;
63312;SDS011;49442;45.640;13.812;2024-03-23T01:14:04;3.47;;;2.40;;
63312;SDS011;49442;45.640;13.812;2024-03-23T01:16:31;3.95;;;2.15;;
63312;SDS011;49442;45.640;13.812;2024-03-23T01:18:57;2.88;;;2.13;;
63312;SDS011;49442;45.640;13.812;2024-03-23T01:21:23;3.80;;;2.40;;
63312;SDS011;49442;45.640;13.812;2024-03-23T01:23:48;4.85;;;2.85;;
63312;SDS011;49442;45.640;13.812;2024-03-23T01:26:14;3.75;;;2.53;;
63312;SDS011;49442;45.640;13.812;2024-03-23T01:28:40;5.75;;;2.47;;
63312;SDS011;49442;45.640;13.812;2024-03-23T01:31:06;4.13;;;2.40;;
63312;SDS011;49442;45.640;13.812;2024-03-23T01:33:31;4.78;;;2.17;;
63312;SDS011;49442;45.640;13.812;2024-03-23T01:35:57;9.57;;;2.20;;
63312;SDS011;49442;45.640;13.812;2024-03-23T01:38:23;5.10;;;2.70;;
63312;SDS011;49442;45.640;13.812;2024-03-23T01:40:49;4.80;;;2.85;;
63312;SDS011;49442;45.640;13.812;2024-03-23T01:43:14;5.50;;;2.75;;
63312;SDS011;49442;45.640;13.812;2024-03-23T01:45:40;4.70;;;2.30;;
63312;SDS011;49442;45.640;13.812;2024-03-23T01:48:06;3.60;;;2.15;;
63312;SDS011;49442;45.640;13.812;2024-03-23T01:50:32;5.05;;;2.60;;
63312;SDS011;49442;45.640;13.812;2024-03-23T01:53:00;5.22;;;2.95;;
63312;SDS011;49442;45.640;13.812;2024-03-23T01:55:28;3.45;;;2.47;;
63312;SDS011;49442;45.640;13.812;2024-03-23T01:57:56;2.97;;;2.25;;
63312;SDS011;49442;45.640;13.812;2024-03-23T02:00:22;6.95;;;2.75;;
63312;SDS011;49442;45.640;13.812;2024-03-23T02:02:48;3.70;;;2.83;;
63312;SDS011;49442;45.640;13.812;2024-03-23T02:05:14;8.65;;;2.90;;
63312;SDS011;49442;45.640;13.812;2024-03-23T02:07:40;3.80;;;2.95;;
63312;SDS011;49442;45.640;13.812;2024-03-23T02:10:08;5.18;;;2.53;;
63312;SDS011;49442;45.640;13.812;2024-03-23T02:12:35;4.00;;;2.50;;
63312;SDS011;49442;45.640;13.812;2024-03-23T02:15:01;4.72;;;2.60;;
63312;SDS011;49442;45.640;13.812;2024-03-23T02:17:27;7.05;;;2.72;;
63312;SDS011;49442;45.640;13.812;2024-03-23T02:19:55;4.57;;;2.85;;
63312;SDS011;49442;45.640;13.812;2024-03-23T02:22:21;6.30;;;3.30;;
63312;SDS011;49442;45.640;13.812;2024-03-23T02:24:46;4.22;;;2.53;;
63312;SDS011;49442;45.640;13.812;2024-03-23T02:27:12;5.53;;;2.88;;
63312;SDS011;49442;45.640;13.812;2024-03-23T02:29:38;6.13;;;3.15;;
63312;SDS011;49442;45.640;13.812;2024-03-23T02:32:03;8.05;;;2.80;;
63312;SDS011;49442;45.640;13.812;2024-03-23T02:34:29;6.80;;;2.67;;
63312;SDS011;49442;45.640;13.812;2024-03-23T02:36:55;9.18;;;2.92;;
63312;SDS011;49442;45.640;13.812;2024-03-23T02:39:21;6.85;;;2.80;;
63312;SDS011;49442;45.640;13.812;2024-03-23T02:41:47;7.72;;;3.00;;
63312;SDS011;49442;45.640;13.812;2024-03-23T02:44:13;7.35;;;2.78;;
63312;SDS011;49442;45.640;13.812;2024-03-23T02:46:39;8.38;;;2.67;;
63312;SDS011;49442;45.640;13.812;2024-03-23T02:49:05;3.90;;;2.40;;
63312;SDS011;49442;45.640;13.812;2024-03-23T02:51:30;9.02;;;3.33;;
63312;SDS011;49442;45.640;13.812;2024-03-23T02:53:56;3.58;;;2.47;;
63312;SDS011;49442;45.640;13.812;2024-03-23T02:56:22;4.43;;;3.00;;
63312;SDS011;49442;45.640;13.812;2024-03-23T02:58:48;6.45;;;2.50;;
63312;SDS011;49442;45.640;13.812;2024-03-23T03:01:14;5.90;;;2.20;;
63312;SDS011;49442;45.640;13.812;2024-03-23T03:03:39;4.03;;;2.90;;
63312;SDS011;49442;45.640;13.812;2024-03-23T03:06:05;4.57;;;2.53;;
63312;SDS011;49442;45.640;13.812;2024-03-23T03:08:31;5.63;;;3.17;;
63312;SDS011;49442;45.640;13.812;2024-03-23T03:10:57;4.60;;;2.70;;
63312;SDS011;49442;45.640;13.812;2024-03-23T03:13:22;4.28;;;3.05;;
63312;SDS011;49442;45.640;13.812;2024-03-23T03:15:48;5.60;;;2.72;;
63312;SDS011;49442;45.640;13.812;2024-03-23T03:18:14;9.95;;;2.60;;
63312;SDS011;49442;45.640;13.812;2024-03-23T03:20:39;5.13;;;2.33;;
63312;SDS011;49442;45.640;13.812;2024-03-23T03:23:08;3.83;;;2.83;;
63312;SDS011;49442;45.640;13.812;2024-03-23T03:25:34;5.82;;;2.95;;
63312;SDS011;49442;45.640;13.812;2024-03-23T03:28:00;5.68;;;2.80;;
63312;SDS011;49442;45.640;13.812;2024-03-23T03:30:26;5.78;;;2.55;;
63312;SDS011;49442;45.640;13.812;2024-03-23T03:32:53;5.75;;;2.67;;
63312;SDS011;49442;45.640;13.812;2024-03-23T03:35:19;10.02;;;3.05;;
63312;SDS011;49442;45.640;13.812;2024-03-23T03:37:44;4.03;;;2.63;;
63312;SDS011;49442;45.640;13.812;2024-03-23T03:40:10;3.33;;;2.70;;
63312;SDS011;49442;45.640;13.812;2024-03-23T03:42:37;5.18;;;2.72;;
63312;SDS011;49442;45.640;13.812;2024-03-23T03:45:03;4.85;;;2.67;;
63312;SDS011;49442;45.640;13.812;2024-03-23T03:47:29;3.35;;;2.42;;
63312;SDS011;49442;45.640;13.812;2024-03-23T03:49:55;4.78;;;2.72;;
63312;SDS011;49442;45.640;13.812;2024-03-23T03:52:21;6.65;;;3.28;;
63312;SDS011;49442;45.640;13.812;2024-03-23T03:54:47;4.20;;;2.30;;
63312;SDS011;49442;45.640;13.812;2024-03-23T03:57:12;3.95;;;2.63;;
63312;SDS011;49442;45.640;13.812;2024-03-23T03:59:38;9.25;;;2.63;;
63312;SDS011;49442;45.640;13.812;2024-03-23T04:02:04;3.40;;;2.30;;
63312;SDS011;49442;45.640;13.812;2024-03-23T04:04:30;3.28;;;2.30;;
63312;SDS011;49442;45.640;13.812;2024-03-23T04:07:02;4.65;;;2.60;;
63312;SDS011;49442;45.640;13.812;2024-03-23T04:09:27;4.63;;;2.83;;
63312;SDS011;49442;45.640;13.812;2024-03-23T04:11:54;2.95;;;2.33;;
63312;SDS011;49442;45.640;13.812;2024-03-23T04:14:19;5.43;;;2.92;;
63312;SDS011;49442;45.640;13.812;2024-03-23T04:16:45;4.07;;;2.40;;
63312;SDS011;49442;45.640;13.812;2024-03-23T04:19:11;3.83;;;2.58;;
63312;SDS011;49442;45.640;13.812;2024-03-23T04:21:38;6.13;;;2.42;;
63312;SDS011;49442;45.640;13.812;2024-03-23T04:24:04;3.53;;;2.20;;
63312;SDS011;49442;45.640;13.812;2024-03-23T04:26:30;4.70;;;2.30;;
63312;SDS011;49442;45.640;13.812;2024-03-23T04:29:05;6.38;;;2.60;;
63312;SDS011;49442;45.640;13.812;2024-03-23T04:31:31;3.15;;;2.55;;
63312;SDS011;49442;45.640;13.812;2024-03-23T04:33:59;3.20;;;2.13;;
63312;SDS011;49442;45.640;13.812;2024-03-23T04:36:25;5.63;;;2.20;;
63312;SDS011;49442;45.640;13.812;2024-03-23T04:38:51;3.30;;;2.28;;
63312;SDS011;49442;45.640;13.812;2024-03-23T04:41:17;3.05;;;2.42;;
63312;SDS011;49442;45.640;13.812;2024-03-23T04:43:43;4.30;;;2.40;;
63312;SDS011;49442;45.640;13.812;2024-03-23T04:46:09;3.38;;;2.60;;
63312;SDS011;49442;45.640;13.812;2024-03-23T04:48:35;4.75;;;2.72;;
63312;SDS011;49442;45.640;13.812;2024-03-23T04:51:01;5.28;;;2.17;;
63312;SDS011;49442;45.640;13.812;2024-03-23T04:53:27;4.45;;;2.65;;
63312;SDS011;49442;45.640;13.812;2024-03-23T04:55:56;2.85;;;2.40;;
63312;SDS011;49442;45.640;13.812;2024-03-23T04:58:22;6.63;;;2.92;;
63312;SDS011;49442;45.640;13.812;2024-03-23T05:00:52;3.35;;;2.70;;
63312;SDS011;49442;45.640;13.812;2024-03-23T05:03:19;5.87;;;3.30;;
63312;SDS011;49442;45.640;13.812;2024-03-23T05:05:46;3.88;;;2.83;;
63312;SDS011;49442;45.640;13.812;2024-03-23T05:08:12;2.97;;;2.67;;
63312;SDS011;49442;45.640;13.812;2024-03-23T05:10:38;3.83;;;2.75;;
63312;SDS011;49442;45.640;13.812;2024-03-23T05:13:04;5.03;;;3.30;;
63312;SDS011;49442;45.640;13.812;2024-03-23T05:15:29;4.78;;;3.47;;
63312;SDS011;49442;45.640;13.812;2024-03-23T05:17:55;6.60;;;3.08;;
63312;SDS011;49442;45.640;13.812;2024-03-23T05:20:21;6.57;;;2.97;;
63312;SDS011;49442;45.640;13.812;2024-03-23T05:22:46;6.63;;;3.05;;
63312;SDS011;49442;45.640;13.812;2024-03-23T05:25:12;3.67;;;3.08;;
63312;SDS011;49442;45.640;13.812;2024-03-23T05:27:38;6.40;;;3.22;;
63312;SDS011;49442;45.640;13.812;2024-03-23T05:30:04;4.63;;;3.25;;
63312;SDS011;49442;45.640;13.812;2024-03-23T05:32:31;4.78;;;3.72;;
63312;SDS011;49442;45.640;13.812;2024-03-23T05:34:56;8.95;;;3.72;;
63312;SDS011;49442;45.640;13.812;2024-03-23T05:37:22;3.97;;;3.03;;
63312;SDS011;49442;45.640;13.812;2024-03-23T05:39:48;5.65;;;3.08;;
63312;SDS011;49442;45.640;13.812;2024-03-23T05:42:18;8.10;;;3.88;;
63312;SDS011;49442;45.640;13.812;2024-03-23T05:44:44;4.60;;;3.17;;
63312;SDS011;49442;45.640;13.812;2024-03-23T05:47:10;5.03;;;3.60;;
63312;SDS011;49442;45.640;13.812;2024-03-23T05:49:38;4.85;;;3.80;;
63312;SDS011;49442;45.640;13.812;2024-03-23T05:52:04;4.13;;;3.17;;
63312;SDS011;49442;45.640;13.812;2024-03-23T05:54:29;6.70;;;3.80;;
63312;SDS011;49442;45.640;13.812;2024-03-23T05:56:55;4.38;;;3.40;;
63312;SDS011;49442;45.640;13.812;2024-03-23T05:59:21;4.25;;;3.65;;
63312;SDS011;49442;45.640;13.812;2024-03-23T06:01:47;8.43;;;3.75;;
63312;SDS011;49442;45.640;13.812;2024-03-23T06:04:13;4.22;;;3.25;;
63312;SDS011;49442;45.640;13.812;2024-03-23T06:06:39;5.78;;;3.55;;
63312;SDS011;49442;45.640;13.812;2024-03-23T06:09:05;6.43;;;3.70;;
63312;SDS011;49442;45.640;13.812;2024-03-23T06:11:30;4.72;;;3.60;;
63312;SDS011;49442;45.640;13.812;2024-03-23T06:13:56;4.30;;;3.33;;
63312;SDS011;49442;45.640;13.812;2024-03-23T06:16:22;5.53;;;3.38;;
63312;SDS011;49442;45.640;13.812;2024-03-23T06:18:52;4.70;;;3.28;;
63312;SDS011;49442;45.640;13.812;2024-03-23T06:21:18;4.45;;;3.40;;
63312;SDS011;49442;45.640;13.812;2024-03-23T06:23:44;4.70;;;3.10;;
63312;SDS011;49442;45.640;13.812;2024-03-23T06:26:19;5.13;;;3.15;;
63312;SDS011;49442;45.640;13.812;2024-03-23T06:28:45;4.95;;;3.03;;
63312;SDS011;49442;45.640;13.812;2024-03-23T06:31:12;6.22;;;2.83;;
63312;SDS011;49442;45.640;13.812;2024-03-23T06:33:38;4.70;;;2.50;;
63312;SDS011;49442;45.640;13.812;2024-03-23T06:36:04;3.67;;;2.65;;
63312;SDS011;49442;45.640;13.812;2024-03-23T06:38:30;3.92;;;3.30;;
63312;SDS011;49442;45.640;13.812;2024-03-23T06:40:56;6.90;;;4.18;;
63312;SDS011;49442;45.640;13.812;2024-03-23T06:43:22;6.13;;;4.45;;
63312;SDS011;49442;45.640;13.812;2024-03-23T06:45:54;5.30;;;3.30;;
63312;SDS011;49442;45.640;13.812;2024-03-23T06:48:20;6.15;;;4.80;;
63312;SDS011;49442;45.640;13.812;2024-03-23T06:50:46;6.43;;;3.28;;
63312;SDS011;49442;45.640;13.812;2024-03-23T06:53:13;4.50;;;2.33;;
63312;SDS011;49442;45.640;13.812;2024-03-23T06:55:39;3.53;;;2.20;;
63312;SDS011;49442;45.640;13.812;2024-03-23T06:58:04;5.05;;;2.42;;
63312;SDS011;49442;45.640;13.812;2024-03-23T07:00:30;2.20;;;2.00;;
63312;SDS011;49442;45.640;13.812;2024-03-23T07:02:57;5.10;;;2.40;;
63312;SDS011;49442;45.640;13.812;2024-03-23T07:05:23;4.35;;;2.30;;
63312;SDS011;49442;45.640;13.812;2024-03-23T07:07:49;3.33;;;2.20;;
63312;SDS011;49442;45.640;13.812;2024-03-23T07:10:15;2.50;;;1.80;;
63312;SDS011;49442;45.640;13.812;2024-03-23T07:12:40;3.15;;;2.00;;
63312;SDS011;49442;45.640;13.812;2024-03-23T07:15:06;3.30;;;2.08;;
63312;SDS011;49442;45.640;13.812;2024-03-23T07:17:33;2.78;;;2.13;;
63312;SDS011;49442;45.640;13.812;2024-03-23T07:20:00;2.30;;;2.00;;
63312;SDS011;49442;45.640;13.812;2024-03-23T07:22:29;4.50;;;2.17;;
63312;SDS011;49442;45.640;13.812;2024-03-23T07:24:55;5.38;;;1.98;;
63312;SDS011;49442;45.640;13.812;2024-03-23T07:27:21;2.95;;;2.00;;
63312;SDS011;49442;45.640;13.812;2024-03-23T07:29:48;4.25;;;1.48;;
63312;SDS011;49442;45.640;13.812;2024-03-23T07:32:14;2.38;;;1.70;;
63312;SDS011;49442;45.640;13.812;2024-03-23T07:34:42;3.40;;;1.90;;
63312;SDS011;49442;45.640;13.812;2024-03-23T07:37:09;5.30;;;2.10;;
63312;SDS011;49442;45.640;13.812;2024-03-23T07:39:35;3.28;;;1.70;;
63312;SDS011;49442;45.640;13.812;2024-03-23T07:42:01;6.55;;;1.85;;
63312;SDS011;49442;45.640;13.812;2024-03-23T07:44:27;1.88;;;1.52;;
63312;SDS011;49442;45.640;13.812;2024-03-23T07:46:53;3.38;;;1.80;;
63312;SDS011;49442;45.640;13.812;2024-03-23T07:49:19;3.65;;;1.80;;
63312;SDS011;49442;45.640;13.812;2024-03-23T07:51:45;3.58;;;1.88;;
63312;SDS011;49442;45.640;13.812;2024-03-23T07:54:10;3.55;;;2.08;;
63312;SDS011;49442;45.640;13.812;2024-03-23T07:56:36;9.40;;;2.30;;
63312;SDS011;49442;45.640;13.812;2024-03-23T07:59:02;3.35;;;2.17;;
63312;SDS011;49442;45.640;13.812;2024-03-23T08:01:30;6.88;;;2.53;;
63312;SDS011;49442;45.640;13.812;2024-03-23T08:03:56;6.38;;;2.40;;
63312;SDS011;49442;45.640;13.812;2024-03-23T08:06:21;2.88;;;2.03;;
63312;SDS011;49442;45.640;13.812;2024-03-23T08:08:52;4.88;;;2.00;;
63312;SDS011;49442;45.640;13.812;2024-03-23T08:11:31;7.50;;;1.90;;
63312;SDS011;49442;45.640;13.812;2024-03-23T08:13:59;6.32;;;2.47;;
63312;SDS011;49442;45.640;13.812;2024-03-23T08:16:26;5.35;;;1.95;;
63312;SDS011;49442;45.640;13.812;2024-03-23T08:18:52;5.93;;;1.55;;
63312;SDS011;49442;45.640;13.812;2024-03-23T08:21:18;4.82;;;2.08;;
63312;SDS011;49442;45.640;13.812;2024-03-23T08:23:44;3.88;;;1.92;;
63312;SDS011;49442;45.640;13.812;2024-03-23T08:26:11;3.33;;;1.85;;
63312;SDS011;49442;45.640;13.812;2024-03-23T08:28:40;5.05;;;1.73;;
63312;SDS011;49442;45.640;13.812;2024-03-23T08:31:12;5.53;;;2.13;;
63312;SDS011;49442;45.640;13.812;2024-03-23T08:33:39;3.92;;;2.17;;
63312;SDS011;49442;45.640;13.812;2024-03-23T08:36:07;5.10;;;2.47;;
63312;SDS011;49442;45.640;13.812;2024-03-23T08:38:34;6.15;;;1.80;;
63312;SDS011;49442;45.640;13.812;2024-03-23T08:41:01;6.00;;;1.73;;
63312;SDS011;49442;45.640;13.812;2024-03-23T08:43:28;2.35;;;2.08;;
63312;SDS011;49442;45.640;13.812;2024-03-23T08:46:02;3.85;;;2.13;;
63312;SDS011;49442;45.640;13.812;2024-03-23T08:48:32;9.38;;;2.30;;
63312;SDS011;49442;45.640;13.812;2024-03-23T08:51:03;3.70;;;1.98;;
63312;SDS011;49442;45.640;13.812;2024-03-23T08:53:33;3.97;;;2.00;;
63312;SDS011;49442;45.640;13.812;2024-03-23T08:56:00;3.97;;;2.10;;
63312;SDS011;49442;45.640;13.812;2024-03-23T08:58:27;2.95;;;2.10;;
63312;SDS011;49442;45.640;13.812;2024-03-23T09:00:54;5.70;;;2.58;;
63312;SDS011;49442;45.640;13.812;2024-03-23T09:03:24;3.53;;;2.17;;
63312;SDS011;49442;45.640;13.812;2024-03-23T09:05:50;5.70;;;2.90;;
63312;SDS011;49442;45.640;13.812;2024-03-23T09:08:16;3.65;;;2.63;;
63312;SDS011;49442;45.640;13.812;2024-03-23T09:10:42;3.13;;;2.33;;
63312;SDS011;49442;45.640;13.812;2024-03-23T09:13:08;5.40;;;3.08;;
63312;SDS011;49442;45.640;13.812;2024-03-23T09:15:34;5.00;;;3.13;;
63312;SDS011;49442;45.640;13.812;2024-03-23T09:18:02;7.63;;;2.80;;
63312;SDS011;49442;45.640;13.812;2024-03-23T09:20:28;7.45;;;3.03;;
63312;SDS011;49442;45.640;13.812;2024-03-23T09:22:54;4.43;;;3.25;;
63312;SDS011;49442;45.640;13.812;2024-03-23T09:25:19;4.72;;;2.90;;
63312;SDS011;49442;45.640;13.812;2024-03-23T09:27:48;4.15;;;3.00;;
63312;SDS011;49442;45.640;13.812;2024-03-23T09:30:14;7.07;;;2.63;;
63312;SDS011;49442;45.640;13.812;2024-03-23T09:32:41;5.82;;;2.95;;
63312;SDS011;49442;45.640;13.812;2024-03-23T09:35:08;4.50;;;2.70;;
63312;SDS011;49442;45.640;13.812;2024-03-23T09:37:34;7.28;;;2.95;;
63312;SDS011;49442;45.640;13.812;2024-03-23T09:39:59;4.88;;;2.90;;
63312;SDS011;49442;45.640;13.812;2024-03-23T09:42:25;5.15;;;2.90;;
63312;SDS011;49442;45.640;13.812;2024-03-23T09:44:51;6.32;;;3.25;;
63312;SDS011;49442;45.640;13.812;2024-03-23T09:47:17;3.70;;;2.75;;
63312;SDS011;49442;45.640;13.812;2024-03-23T09:49:43;4.15;;;2.88;;
63312;SDS011;49442;45.640;13.812;2024-03-23T09:52:09;5.80;;;2.67;;
63312;SDS011;49442;45.640;13.812;2024-03-23T09:54:35;7.07;;;3.50;;
63312;SDS011;49442;45.640;13.812;2024-03-23T09:57:01;7.22;;;2.78;;
63312;SDS011;49442;45.640;13.812;2024-03-23T09:59:27;3.72;;;2.65;;
63312;SDS011;49442;45.640;13.812;2024-03-23T10:01:54;4.97;;;2.20;;
63312;SDS011;49442;45.640;13.812;2024-03-23T10:04:36;3.60;;;2.42;;
63312;SDS011;49442;45.640;13.812;2024-03-23T10:07:14;3.13;;;2.22;;
63312;SDS011;49442;45.640;13.812;2024-03-23T10:09:43;5.05;;;2.05;;
63312;SDS011;49442;45.640;13.812;2024-03-23T10:12:13;3.38;;;2.40;;
63312;SDS011;49442;45.640;13.812;2024-03-23T10:14:42;4.90;;;2.33;;
63312;SDS011;49442;45.640;13.812;2024-03-23T10:19:38;4.78;;;2.97;;
63312;SDS011;49442;45.640;13.812;2024-03-23T10:22:04;4.75;;;3.50;;
63312;SDS011;49442;45.640;13.812;2024-03-23T10:24:31;4.88;;;4.18;;
63312;SDS011;49442;45.640;13.812;2024-03-23T10:26:57;7.55;;;5.75;;
63312;SDS011;49442;45.640;13.812;2024-03-23T10:29:23;8.82;;;6.50;;
63312;SDS011;49442;45.640;13.812;2024-03-23T10:31:51;8.90;;;6.15;;
63312;SDS011;49442;45.640;13.812;2024-03-23T10:34:16;7.18;;;5.90;;
63312;SDS011;49442;45.640;13.812;2024-03-23T10:36:52;7.95;;;5.00;;
63312;SDS011;49442;45.640;13.812;2024-03-23T10:39:20;9.25;;;4.80;;
63312;SDS011;49442;45.640;13.812;2024-03-23T10:41:48;9.82;;;4.60;;
63312;SDS011;49442;45.640;13.812;2024-03-23T10:44:16;10.57;;;6.45;;
63312;SDS011;49442;45.640;13.812;2024-03-23T10:46:44;11.65;;;8.73;;
63312;SDS011;49442;45.640;13.812;2024-03-23T10:49:10;13.15;;;9.20;;
63312;SDS011;49442;45.640;13.812;2024-03-23T10:51:36;17.05;;;10.77;;
63312;SDS011;49442;45.640;13.812;2024-03-23T10:54:05;15.27;;;10.27;;
63312;SDS011;49442;45.640;13.812;2024-03-23T10:56:32;15.77;;;10.23;;
63312;SDS011;49442;45.640;13.812;2024-03-23T10:59:00;13.40;;;9.95;;
63312;SDS011;49442;45.640;13.812;2024-03-23T11:01:28;13.23;;;10.52;;
63312;SDS011;49442;45.640;13.812;2024-03-23T11:03:54;16.25;;;10.98;;
63312;SDS011;49442;45.640;13.812;2024-03-23T11:06:38;15.50;;;11.98;;
63312;SDS011;49442;45.640;13.812;2024-03-23T11:12:36;14.88;;;11.75;;
63312;SDS011;49442;45.640;13.812;2024-03-23T11:17:28;16.33;;;11.70;;
63312;SDS011;49442;45.640;13.812;2024-03-23T11:20:12;23.15;;;11.70;;
63312;SDS011;49442;45.640;13.812;2024-03-23T11:25:18;17.63;;;13.18;;
63312;SDS011;49442;45.640;13.812;2024-03-23T11:27:49;17.63;;;12.60;;
63312;SDS011;49442;45.640;13.812;2024-03-23T11:30:19;16.42;;;13.25;;
63312;SDS011;49442;45.640;13.812;2024-03-23T11:32:50;17.27;;;12.45;;
63312;SDS011;49442;45.640;13.812;2024-03-23T11:38:06;17.05;;;13.80;;
63312;SDS011;49442;45.640;13.812;2024-03-23T11:40:33;17.90;;;14.33;;
63312;SDS011;49442;45.640;13.812;2024-03-23T11:43:01;20.65;;;14.95;;
63312;SDS011;49442;45.640;13.812;2024-03-23T11:45:28;22.90;;;14.95;;
63312;SDS011;49442;45.640;13.812;2024-03-23T11:50:53;24.15;;;15.35;;
63312;SDS011;49442;45.640;13.812;2024-03-23T11:53:21;29.40;;;15.15;;
63312;SDS011;49442;45.640;13.812;2024-03-23T11:55:51;22.55;;;14.95;;
63312;SDS011;49442;45.640;13.812;2024-03-23T11:58:21;20.70;;;13.45;;
63312;SDS011;49442;45.640;13.812;2024-03-23T12:01:03;23.30;;;13.38;;
63312;SDS011;49442;45.640;13.812;2024-03-23T12:03:30;25.75;;;14.38;;
63312;SDS011;49442;45.640;13.812;2024-03-23T12:06:01;20.50;;;13.57;;
63312;SDS011;49442;45.640;13.812;2024-03-23T12:11:31;23.50;;;16.33;;
63312;SDS011;49442;45.640;13.812;2024-03-23T12:13:51;22.55;;;13.90;;
63312;SDS011;49442;45.640;13.812;2024-03-23T12:16:20;19.98;;;14.02;;
63312;SDS011;49442;45.640;13.812;2024-03-23T12:18:46;17.30;;;12.57;;
63312;SDS011;49442;45.640;13.812;2024-03-23T12:21:14;20.08;;;13.52;;
63312;SDS011;49442;45.640;13.812;2024-03-23T12:23:40;18.42;;;12.90;;
63312;SDS011;49442;45.640;13.812;2024-03-23T12:26:07;19.52;;;15.02;;
63312;SDS011;49442;45.640;13.812;2024-03-23T12:28:33;19.30;;;13.18;;
63312;SDS011;49442;45.640;13.812;2024-03-23T12:30:58;17.92;;;13.70;;
63312;SDS011;49442;45.640;13.812;2024-03-23T12:33:24;24.25;;;13.32;;
63312;SDS011;49442;45.640;13.812;2024-03-23T12:35:50;16.73;;;12.63;;
63312;SDS011;49442;45.640;13.812;2024-03-23T12:38:16;24.80;;;12.05;;
63312;SDS011;49442;45.640;13.812;2024-03-23T12:40:46;20.48;;;12.70;;
63312;SDS011;49442;45.640;13.812;2024-03-23T12:43:13;23.48;;;13.38;;
63312;SDS011;49442;45.640;13.812;2024-03-23T12:45:38;21.48;;;13.45;;
63312;SDS011;49442;45.640;13.812;2024-03-23T12:48:04;35.67;;;14.55;;
63312;SDS011;49442;45.640;13.812;2024-03-23T12:50:30;18.83;;;12.15;;
63312;SDS011;49442;45.640;13.812;2024-03-23T12:52:56;19.85;;;13.10;;
63312;SDS011;49442;45.640;13.812;2024-03-23T12:55:21;17.45;;;11.68;;
63312;SDS011;49442;45.640;13.812;2024-03-23T12:57:47;19.80;;;11.95;;
63312;SDS011;49442;45.640;13.812;2024-03-23T13:00:13;16.83;;;11.57;;
63312;SDS011;49442;45.640;13.812;2024-03-23T13:02:40;20.27;;;11.70;;
63312;SDS011;49442;45.640;13.812;2024-03-23T13:05:06;19.30;;;11.93;;
63312;SDS011;49442;45.640;13.812;2024-03-23T13:07:35;16.55;;;10.80;;
63312;SDS011;49442;45.640;13.812;2024-03-23T13:10:02;19.27;;;11.30;;
63312;SDS011;49442;45.640;13.812;2024-03-23T13:12:29;16.20;;;11.52;;
63312;SDS011;49442;45.640;13.812;2024-03-23T13:14:55;22.38;;;12.00;;
63312;SDS011;49442;45.640;13.812;2024-03-23T13:17:21;19.60;;;11.93;;
63312;SDS011;49442;45.640;13.812;2024-03-23T13:19:47;16.70;;;10.25;;
63312;SDS011;49442;45.640;13.812;2024-03-23T13:22:12;12.80;;;9.98;;
63312;SDS011;49442;45.640;13.812;2024-03-23T13:24:38;14.05;;;11.25;;
63312;SDS011;49442;45.640;13.812;2024-03-23T13:27:04;12.95;;;9.93;;
63312;SDS011;49442;45.640;13.812;2024-03-23T13:29:34;17.48;;;10.93;;
63312;SDS011;49442;45.640;13.812;2024-03-23T13:32:00;17.67;;;9.98;;
63312;SDS011;49442;45.640;13.812;2024-03-23T13:34:26;18.48;;;10.02;;
63312;SDS011;49442;45.640;13.812;2024-03-23T13:36:52;18.85;;;11.70;;
63312;SDS011;49442;45.640;13.812;2024-03-23T13:39:18;16.77;;;10.90;;
63312;SDS011;49442;45.640;13.812;2024-03-23T13:41:44;16.42;;;10.70;;
63312;SDS011;49442;45.640;13.812;2024-03-23T13:44:11;18.00;;;10.63;;
63312;SDS011;49442;45.640;13.812;2024-03-23T13:46:38;15.73;;;10.82;;
63312;SDS011;49442;45.640;13.812;2024-03-23T13:49:05;17.30;;;10.65;;
63312;SDS011;49442;45.640;13.812;2024-03-23T13:51:31;16.90;;;10.38;;
63312;SDS011;49442;45.640;13.812;2024-03-23T13:53:57;17.40;;;10.32;;
63312;SDS011;49442;45.640;13.812;2024-03-23T13:56:25;12.77;;;9.75;;
63312;SDS011;49442;45.640;13.812;2024-03-23T13:58:55;13.77;;;9.40;;
63312;SDS011;49442;45.640;13.812;2024-03-23T14:01:21;16.38;;;10.20;;
63312;SDS011;49442;45.640;13.812;2024-03-23T14:03:47;14.25;;;9.13;;
63312;SDS011;49442;45.640;13.812;2024-03-23T14:06:13;15.73;;;9.32;;
63312;SDS011;49442;45.640;13.812;2024-03-23T14:08:39;13.55;;;9.77;;
63312;SDS011;49442;45.640;13.812;2024-03-23T14:11:08;11.25;;;8.27;;
63312;SDS011;49442;45.640;13.812;2024-03-23T14:13:34;15.20;;;8.02;;
63312;SDS011;49442;45.640;13.812;2024-03-23T14:16:00;11.95;;;7.65;;
63312;SDS011;49442;45.640;13.812;2024-03-23T14:18:26;12.10;;;7.28;;
63312;SDS011;49442;45.640;13.812;2024-03-23T14:20:55;10.98;;;7.22;;
63312;SDS011;49442;45.640;13.812;2024-03-23T14:23:25;9.73;;;6.35;;
63312;SDS011;49442;45.640;13.812;2024-03-23T14:25:55;16.02;;;6.63;;
63312;SDS011;49442;45.640;13.812;2024-03-23T14:28:22;10.75;;;5.65;;
63312;SDS011;49442;45.640;13.812;2024-03-23T14:30:51;8.57;;;6.05;;
63312;SDS011;49442;45.640;13.812;2024-03-23T14:33:20;8.57;;;5.40;;
63312;SDS011;49442;45.640;13.812;2024-03-23T14:35:55;14.48;;;6.00;;
63312;SDS011;49442;45.640;13.812;2024-03-23T14:38:22;10.07;;;5.05;;
63312;SDS011;49442;45.640;13.812;2024-03-23T14:40:48;8.30;;;5.25;;
63312;SDS011;49442;45.640;13.812;2024-03-23T14:43:14;9.15;;;5.85;;
63312;SDS011;49442;45.640;13.812;2024-03-23T14:48:38;11.40;;;5.93;;
63312;SDS011;49442;45.640;13.812;2024-03-23T14:51:04;9.35;;;5.60;;
63312;SDS011;49442;45.640;13.812;2024-03-23T14:53:31;13.00;;;5.97;;
63312;SDS011;49442;45.640;13.812;2024-03-23T14:56:01;9.65;;;5.43;;
63312;SDS011;49442;45.640;13.812;2024-03-23T14:58:28;10.27;;;6.18;;
63312;SDS011;49442;45.640;13.812;2024-03-23T15:01:00;6.38;;;4.80;;
63312;SDS011;49442;45.640;13.812;2024-03-23T15:03:27;14.77;;;5.28;;
63312;SDS011;49442;45.640;13.812;2024-03-23T15:05:53;9.20;;;5.03;;
63312;SDS011;49442;45.640;13.812;2024-03-23T15:08:23;8.23;;;4.10;;
63312;SDS011;49442;45.640;13.812;2024-03-23T15:10:49;9.82;;;4.07;;
63312;SDS011;49442;45.640;13.812;2024-03-23T15:13:15;7.18;;;4.15;;
63312;SDS011;49442;45.640;13.812;2024-03-23T15:15:41;5.93;;;3.70;;
63312;SDS011;49442;45.640;13.812;2024-03-23T15:18:12;8.48;;;4.28;;
63312;SDS011;49442;45.640;13.812;2024-03-23T15:20:39;9.82;;;3.90;;
63312;SDS011;49442;45.640;13.812;2024-03-23T15:23:06;14.00;;;4.10;;
63312;SDS011;49442;45.640;13.812;2024-03-23T15:25:32;7.25;;;4.28;;
63312;SDS011;49442;45.640;13.812;2024-03-23T15:27:58;6.72;;;4.30;;
63312;SDS011;49442;45.640;13.812;2024-03-23T15:30:25;6.00;;;3.70;;
63312;SDS011;49442;45.640;13.812;2024-03-23T15:32:51;8.02;;;4.25;;
63312;SDS011;49442;45.640;13.812;2024-03-23T15:35:17;9.45;;;4.35;;
63312;SDS011;49442;45.640;13.812;2024-03-23T15:37:44;10.70;;;4.00;;
63312;SDS011;49442;45.640;13.812;2024-03-23T15:40:09;11.13;;;4.00;;